Time;durP1;ratioP1;P1;durP2;ratioP2;P2;SDS_P1;SDS_P2;PMS_P1;PMS_P2;Temp;Humidity;BMP_temperature;BMP_pressure;BME280_temperature;BME280_humidity;BME280_pressure;Samples;Min_cycle;Max_cycle;Signal;HPM_P1;HPM_P2
2022/01/15 00:02:02;;;;;;;31.63;11.97;;;;;;;;;;4995520;28;20251;-76
2022/01/15 00:04:29;;;;;;;29.27;12.07;;;;;;;;;;4994967;28;20459;-75
2022/01/15 00:06:56;;;;;;;32.57;11.93;;;;;;;;;;4993698;28;20732;-75
2022/01/15 00:09:23;;;;;;;34.13;11.80;;;;;;;;;;4995316;28;20196;-75
2022/01/15 00:11:52;;;;;;;29.10;11.63;;;;;;;;;;4997629;28;20464;-76
2022/01/15 00:14:26;;;;;;;34.10;13.17;;;;;;;;;;4990875;28;20601;-75
2022/01/15 00:17:04;;;;;;;31.17;12.03;;;;;;;;;;4992818;28;20227;-75
2022/01/15 00:19:41;;;;;;;32.80;11.87;;;;;;;;;;4993226;28;20223;-76
2022/01/15 00:22:08;;;;;;;33.47;12.80;;;;;;;;;;4992108;28;20225;-75
2022/01/15 00:24:35;;;;;;;30.70;12.33;;;;;;;;;;4992094;28;20985;-76
2022/01/15 00:27:04;;;;;;;35.67;12.20;;;;;;;;;;4994757;28;20832;-75
2022/01/15 00:29:32;;;;;;;36.90;12.83;;;;;;;;;;4992916;28;20258;-75
2022/01/15 00:31:59;;;;;;;29.67;11.23;;;;;;;;;;4993407;28;20320;-75
2022/01/15 00:34:27;;;;;;;33.87;12.70;;;;;;;;;;4992314;28;20625;-75
2022/01/15 00:36:54;;;;;;;31.67;11.73;;;;;;;;;;4991205;28;20219;-75
2022/01/15 00:39:22;;;;;;;28.33;11.90;;;;;;;;;;4991332;28;20487;-75
2022/01/15 00:41:49;;;;;;;36.60;13.37;;;;;;;;;;4990863;28;20758;-75
2022/01/15 00:44:18;;;;;;;32.17;12.83;;;;;;;;;;4993697;28;20557;-75
2022/01/15 00:46:45;;;;;;;33.00;12.37;;;;;;;;;;4991189;28;20775;-75
2022/01/15 00:49:13;;;;;;;36.10;12.57;;;;;;;;;;4993829;28;20502;-75
2022/01/15 00:51:40;;;;;;;34.90;12.97;;;;;;;;;;4996827;28;20294;-76
2022/01/15 00:54:07;;;;;;;32.90;12.07;;;;;;;;;;4994380;28;20262;-76
2022/01/15 00:56:34;;;;;;;33.97;12.23;;;;;;;;;;4992962;28;20296;-75
2022/01/15 00:59:02;;;;;;;35.80;12.80;;;;;;;;;;4991527;28;20960;-76
2022/01/15 01:01:30;;;;;;;35.40;12.93;;;;;;;;;;4995792;28;20225;-76
2022/01/15 01:03:57;;;;;;;33.73;13.33;;;;;;;;;;4989996;28;20549;-75
2022/01/15 01:06:25;;;;;;;38.20;13.83;;;;;;;;;;4992584;28;20295;-75
2022/01/15 01:08:52;;;;;;;34.93;12.47;;;;;;;;;;4990567;28;20205;-75
2022/01/15 01:11:29;;;;;;;34.67;12.33;;;;;;;;;;4993778;28;20215;-76
2022/01/15 01:24:55;;;;;;;32.50;13.50;;;;;;;;;;4993076;28;20208;-76
2022/01/15 01:27:27;;;;;;;37.97;13.70;;;;;;;;;;4992891;28;20304;-76
2022/01/15 01:30:11;;;;;;;38.17;13.70;;;;;;;;;;4991887;28;20459;-75
2022/01/15 01:32:47;;;;;;;39.33;13.70;;;;;;;;;;4995837;28;20234;-76
2022/01/15 01:35:19;;;;;;;40.17;14.57;;;;;;;;;;4999110;28;20302;-76
2022/01/15 01:37:51;;;;;;;45.03;14.20;;;;;;;;;;4992760;28;20211;-76
2022/01/15 01:40:22;;;;;;;45.53;14.80;;;;;;;;;;4998733;28;20252;-73
2022/01/15 01:42:59;;;;;;;41.27;15.13;;;;;;;;;;4993581;28;20279;-74
2022/01/15 01:45:26;;;;;;;40.53;14.23;;;;;;;;;;4993851;28;20483;-74
2022/01/15 01:47:55;;;;;;;40.77;14.10;;;;;;;;;;4994057;28;20486;-75
2022/01/15 01:50:24;;;;;;;41.50;13.70;;;;;;;;;;4995048;28;20456;-74
2022/01/15 01:52:52;;;;;;;49.40;14.90;;;;;;;;;;4995922;28;20502;-75
2022/01/15 01:55:22;;;;;;;47.30;13.67;;;;;;;;;;4995880;28;20212;-74
2022/01/15 01:57:50;;;;;;;47.03;14.57;;;;;;;;;;4995181;28;20239;-74
2022/01/15 02:00:18;;;;;;;49.20;14.80;;;;;;;;;;4995127;28;20230;-75
2022/01/15 02:02:46;;;;;;;48.70;14.63;;;;;;;;;;4995613;28;20336;-75
2022/01/15 02:05:14;;;;;;;40.70;13.43;;;;;;;;;;4990981;28;20315;-74
2022/01/15 02:07:43;;;;;;;66.33;14.27;;;;;;;;;;4996012;28;21053;-74
2022/01/15 02:10:12;;;;;;;47.40;14.53;;;;;;;;;;4997398;28;20209;-74
2022/01/15 02:12:39;;;;;;;52.43;13.43;;;;;;;;;;4997057;28;20695;-76
2022/01/15 02:15:08;;;;;;;55.47;14.40;;;;;;;;;;4994306;28;20208;-75
2022/01/15 02:17:35;;;;;;;53.07;14.87;;;;;;;;;;4996285;28;20459;-75
2022/01/15 02:20:22;;;;;;;43.93;13.47;;;;;;;;;;4996545;28;20570;-76
2022/01/15 02:25:42;;;;;;;60.00;14.73;;;;;;;;;;4995327;28;20419;-75
2022/01/15 02:28:09;;;;;;;51.83;13.73;;;;;;;;;;4997690;28;20211;-75
2022/01/15 02:30:36;;;;;;;49.90;14.33;;;;;;;;;;4997339;28;22023;-75
2022/01/15 02:33:04;;;;;;;63.03;14.93;;;;;;;;;;4996488;28;20658;-76
2022/01/15 02:35:32;;;;;;;48.97;14.67;;;;;;;;;;4996495;28;20472;-75
2022/01/15 02:38:02;;;;;;;65.93;15.13;;;;;;;;;;4997196;28;20239;-76
2022/01/15 02:40:32;;;;;;;48.77;14.27;;;;;;;;;;4993821;28;20225;-76
2022/01/15 02:43:03;;;;;;;45.00;13.10;;;;;;;;;;4993691;28;20231;-75
2022/01/15 02:45:32;;;;;;;48.60;14.40;;;;;;;;;;4995626;28;20211;-75
2022/01/15 02:48:02;;;;;;;52.60;13.63;;;;;;;;;;4997302;28;20300;-75
2022/01/15 02:50:29;;;;;;;45.73;13.90;;;;;;;;;;4993431;28;20573;-75
2022/01/15 02:52:58;;;;;;;50.63;14.03;;;;;;;;;;4992487;28;20224;-76
2022/01/15 02:55:25;;;;;;;53.80;13.40;;;;;;;;;;4993636;28;20757;-76
2022/01/15 02:57:52;;;;;;;49.77;14.30;;;;;;;;;;4992197;28;20655;-76
2022/01/15 03:00:20;;;;;;;47.27;13.33;;;;;;;;;;4993080;28;21024;-76
2022/01/15 03:02:47;;;;;;;47.13;12.97;;;;;;;;;;4994044;28;20224;-76
2022/01/15 03:05:14;;;;;;;39.97;13.50;;;;;;;;;;4993427;28;20205;-76
2022/01/15 03:07:41;;;;;;;44.43;13.23;;;;;;;;;;4994934;28;20559;-76
2022/01/15 03:10:10;;;;;;;40.33;11.70;;;;;;;;;;4992634;28;20296;-76
2022/01/15 03:12:38;;;;;;;54.60;12.80;;;;;;;;;;4994704;28;20280;-76
2022/01/15 03:15:06;;;;;;;42.33;12.60;;;;;;;;;;4994813;28;20694;-76
2022/01/15 03:17:33;;;;;;;40.30;12.47;;;;;;;;;;4994779;28;20666;-75
2022/01/15 03:20:00;;;;;;;42.43;13.27;;;;;;;;;;4993539;28;20494;-75
2022/01/15 03:22:28;;;;;;;54.13;13.53;;;;;;;;;;4990631;28;20647;-76
2022/01/15 03:24:55;;;;;;;48.30;13.60;;;;;;;;;;4994852;28;20671;-75
2022/01/15 03:27:24;;;;;;;49.23;12.73;;;;;;;;;;4996396;28;20539;-75
2022/01/15 03:29:51;;;;;;;41.70;12.60;;;;;;;;;;4992617;28;20289;-75
2022/01/15 03:32:19;;;;;;;58.37;13.87;;;;;;;;;;4993069;28;20491;-76
2022/01/15 03:34:46;;;;;;;44.47;12.40;;;;;;;;;;4992925;28;20288;-76
2022/01/15 03:37:13;;;;;;;49.17;13.80;;;;;;;;;;4990272;28;20471;-76
2022/01/15 03:39:41;;;;;;;47.30;12.80;;;;;;;;;;4991155;28;20589;-74
2022/01/15 03:42:11;;;;;;;48.13;13.00;;;;;;;;;;4993399;28;20224;-75
2022/01/15 03:44:41;;;;;;;45.40;13.17;;;;;;;;;;4995141;28;20205;-75
2022/01/15 03:47:08;;;;;;;45.37;12.90;;;;;;;;;;4996012;28;20951;-75
2022/01/15 03:49:35;;;;;;;52.97;13.67;;;;;;;;;;4992792;28;20546;-76
2022/01/15 03:52:03;;;;;;;48.60;11.60;;;;;;;;;;4991081;28;20316;-75
2022/01/15 03:54:30;;;;;;;40.20;12.33;;;;;;;;;;4992428;28;20210;-75
2022/01/15 03:56:57;;;;;;;43.70;12.13;;;;;;;;;;4993887;28;20215;-75
2022/01/15 03:59:24;;;;;;;40.03;11.57;;;;;;;;;;4990179;28;20203;-75
2022/01/15 04:01:53;;;;;;;47.07;12.43;;;;;;;;;;4992704;28;20312;-75
2022/01/15 04:04:21;;;;;;;41.57;12.70;;;;;;;;;;4992818;28;20211;-75
2022/01/15 04:06:48;;;;;;;43.90;12.17;;;;;;;;;;4993011;28;20212;-75
2022/01/15 04:09:17;;;;;;;47.40;12.03;;;;;;;;;;4994967;28;20540;-75
2022/01/15 04:11:44;;;;;;;38.83;11.77;;;;;;;;;;4995185;28;20244;-75
2022/01/15 04:14:11;;;;;;;43.00;12.13;;;;;;;;;;4991572;28;22186;-75
2022/01/15 04:16:39;;;;;;;46.57;12.17;;;;;;;;;;4992238;28;21579;-76
2022/01/15 04:19:08;;;;;;;38.23;12.40;;;;;;;;;;4991661;28;20307;-75
2022/01/15 04:21:35;;;;;;;44.67;12.00;;;;;;;;;;4996643;28;20220;-75
2022/01/15 04:24:02;;;;;;;47.77;12.73;;;;;;;;;;4988396;28;20239;-76
2022/01/15 04:26:30;;;;;;;42.43;12.30;;;;;;;;;;4994735;28;20198;-76
2022/01/15 04:29:02;;;;;;;43.80;12.70;;;;;;;;;;4991419;28;20751;-75
2022/01/15 04:31:35;;;;;;;40.30;11.93;;;;;;;;;;4995421;28;20221;-75
2022/01/15 04:34:02;;;;;;;46.63;12.60;;;;;;;;;;4992070;28;20566;-76
2022/01/15 04:36:31;;;;;;;40.67;12.67;;;;;;;;;;4995154;28;20324;-76
2022/01/15 04:38:58;;;;;;;39.53;12.20;;;;;;;;;;4991970;28;20201;-75
2022/01/15 04:41:25;;;;;;;44.77;12.13;;;;;;;;;;4993910;28;20263;-75
2022/01/15 04:43:52;;;;;;;42.57;11.97;;;;;;;;;;4991445;28;20220;-75
2022/01/15 04:46:20;;;;;;;37.60;11.63;;;;;;;;;;4994689;28;20303;-75
2022/01/15 04:48:47;;;;;;;37.77;11.63;;;;;;;;;;4993884;28;20655;-75
2022/01/15 04:51:14;;;;;;;31.57;11.27;;;;;;;;;;4993518;28;20283;-75
2022/01/15 04:53:42;;;;;;;35.90;10.93;;;;;;;;;;4992412;28;20247;-77
2022/01/15 04:56:10;;;;;;;44.33;11.97;;;;;;;;;;4993478;28;20774;-77
2022/01/15 04:58:37;;;;;;;40.37;12.40;;;;;;;;;;4990885;28;20219;-76
2022/01/15 05:01:04;;;;;;;38.53;11.40;;;;;;;;;;4993581;28;20331;-77
2022/01/15 05:03:31;;;;;;;36.23;11.57;;;;;;;;;;4992731;28;20304;-76
2022/01/15 05:05:58;;;;;;;39.47;11.77;;;;;;;;;;4992420;28;20567;-77
2022/01/15 05:08:25;;;;;;;36.23;12.07;;;;;;;;;;4996199;28;20204;-76
2022/01/15 05:10:58;;;;;;;39.47;11.33;;;;;;;;;;4995163;28;20209;-77
2022/01/15 05:13:28;;;;;;;40.83;11.87;;;;;;;;;;4996664;28;20647;-76
2022/01/15 05:15:56;;;;;;;32.27;10.47;;;;;;;;;;4996864;28;20209;-76
2022/01/15 05:18:26;;;;;;;33.87;11.17;;;;;;;;;;4996351;28;20304;-76
2022/01/15 05:20:54;;;;;;;37.77;12.83;;;;;;;;;;4993297;28;20319;-76
2022/01/15 05:23:21;;;;;;;42.47;11.77;;;;;;;;;;4995123;28;20786;-77
2022/01/15 05:25:48;;;;;;;57.43;16.80;;;;;;;;;;4996866;28;20638;-76
2022/01/15 05:28:16;;;;;;;57.13;15.93;;;;;;;;;;4997638;28;20279;-75
2022/01/15 05:30:44;;;;;;;58.30;17.03;;;;;;;;;;4995343;28;20211;-76
2022/01/15 05:33:11;;;;;;;60.20;15.93;;;;;;;;;;4996809;28;20269;-76
2022/01/15 05:35:38;;;;;;;41.23;14.37;;;;;;;;;;4994367;28;20294;-76
2022/01/15 05:38:05;;;;;;;51.93;14.70;;;;;;;;;;4996534;28;20215;-76
2022/01/15 05:40:32;;;;;;;41.23;14.03;;;;;;;;;;4994374;28;20235;-76
2022/01/15 05:42:59;;;;;;;45.60;14.30;;;;;;;;;;4999815;28;20238;-76
2022/01/15 05:45:28;;;;;;;46.67;15.17;;;;;;;;;;4996978;28;20287;-75
2022/01/15 05:47:56;;;;;;;46.63;13.87;;;;;;;;;;4998581;28;20208;-76
2022/01/15 05:50:23;;;;;;;45.73;14.50;;;;;;;;;;4992871;28;20203;-76
2022/01/15 05:52:50;;;;;;;39.37;13.33;;;;;;;;;;4997081;28;20228;-76
2022/01/15 05:55:17;;;;;;;55.23;14.67;;;;;;;;;;4990691;28;20197;-75
2022/01/15 05:57:45;;;;;;;50.20;15.40;;;;;;;;;;4993537;28;20663;-75
2022/01/15 06:00:12;;;;;;;47.57;12.37;;;;;;;;;;4993433;28;20217;-75
2022/01/15 06:02:40;;;;;;;35.17;12.23;;;;;;;;;;4992279;28;20258;-76
2022/01/15 06:05:08;;;;;;;46.17;12.93;;;;;;;;;;4997555;28;20212;-76
2022/01/15 06:07:35;;;;;;;51.37;14.33;;;;;;;;;;4996225;28;20611;-75
2022/01/15 06:10:02;;;;;;;37.03;11.83;;;;;;;;;;4995072;28;20201;-75
2022/01/15 06:12:31;;;;;;;28.20;9.73;;;;;;;;;;4993679;28;20248;-75
2022/01/15 06:14:59;;;;;;;28.07;9.80;;;;;;;;;;4995072;28;20206;-75
2022/01/15 06:17:26;;;;;;;29.07;9.93;;;;;;;;;;4993113;28;20300;-75
2022/01/15 06:19:55;;;;;;;25.73;9.10;;;;;;;;;;4997770;28;20211;-75
2022/01/15 06:22:22;;;;;;;26.90;9.67;;;;;;;;;;4994607;28;20236;-76
2022/01/15 06:24:49;;;;;;;17.07;5.43;;;;;;;;;;4995182;28;20223;-75
2022/01/15 06:27:19;;;;;;;15.23;6.33;;;;;;;;;;4993620;28;20227;-76
2022/01/15 06:29:46;;;;;;;19.57;5.70;;;;;;;;;;4994128;28;20235;-74
2022/01/15 06:32:13;;;;;;;14.50;5.83;;;;;;;;;;4995482;28;20252;-76
2022/01/15 06:34:40;;;;;;;12.67;4.80;;;;;;;;;;4994795;28;20209;-75
2022/01/15 06:37:09;;;;;;;11.53;4.73;;;;;;;;;;4995618;28;20301;-76
2022/01/15 06:39:36;;;;;;;13.40;4.80;;;;;;;;;;4996382;28;20209;-76
2022/01/15 06:42:03;;;;;;;11.97;4.40;;;;;;;;;;5000628;28;20235;-77
2022/01/15 06:44:31;;;;;;;12.13;4.87;;;;;;;;;;4999145;28;20284;-77
2022/01/15 06:46:58;;;;;;;9.67;4.87;;;;;;;;;;4998444;28;20219;-77
2022/01/15 06:49:25;;;;;;;12.43;5.00;;;;;;;;;;5000635;28;20216;-77
2022/01/15 06:51:52;;;;;;;10.97;5.03;;;;;;;;;;4999275;28;20208;-77
2022/01/15 06:54:21;;;;;;;11.80;5.23;;;;;;;;;;4994897;28;20228;-76
2022/01/15 06:56:48;;;;;;;9.10;3.93;;;;;;;;;;4992314;28;20211;-76
2022/01/15 06:59:15;;;;;;;10.70;4.13;;;;;;;;;;4994355;28;20209;-76
2022/01/15 07:01:42;;;;;;;11.40;4.63;;;;;;;;;;4993146;28;20220;-77
2022/01/15 07:04:09;;;;;;;10.63;4.80;;;;;;;;;;4995181;28;20213;-77
2022/01/15 07:06:36;;;;;;;13.67;5.40;;;;;;;;;;4995883;28;20655;-76
2022/01/15 07:09:04;;;;;;;12.90;5.20;;;;;;;;;;4989347;28;20204;-76
2022/01/15 07:11:32;;;;;;;12.73;5.07;;;;;;;;;;4995020;28;20199;-75
2022/01/15 07:13:59;;;;;;;17.03;5.50;;;;;;;;;;4992569;28;20228;-76
2022/01/15 07:16:27;;;;;;;10.20;4.63;;;;;;;;;;4991557;28;20193;-74
2022/01/15 07:18:54;;;;;;;10.87;4.60;;;;;;;;;;4993589;28;20247;-76
2022/01/15 07:21:21;;;;;;;8.80;4.13;;;;;;;;;;4994502;28;20220;-77
2022/01/15 07:23:48;;;;;;;9.40;4.67;;;;;;;;;;4997437;28;20235;-76
2022/01/15 07:26:15;;;;;;;11.17;4.80;;;;;;;;;;4998449;28;20205;-77
2022/01/15 07:28:44;;;;;;;9.37;4.53;;;;;;;;;;4995535;28;20686;-76
2022/01/15 07:31:11;;;;;;;10.33;3.97;;;;;;;;;;4996326;28;20229;-76
2022/01/15 07:33:38;;;;;;;11.23;3.80;;;;;;;;;;4998664;28;20232;-76
2022/01/15 07:36:06;;;;;;;10.30;4.00;;;;;;;;;;4998059;28;20228;-76
2022/01/15 07:38:33;;;;;;;8.10;4.00;;;;;;;;;;4994992;28;20636;-75
2022/01/15 07:41:00;;;;;;;9.40;4.00;;;;;;;;;;4990903;28;20737;-76
2022/01/15 07:43:27;;;;;;;9.80;4.50;;;;;;;;;;4995618;28;20319;-77
2022/01/15 07:45:56;;;;;;;9.07;4.03;;;;;;;;;;4991955;28;20203;-76
2022/01/15 07:48:23;;;;;;;11.87;4.50;;;;;;;;;;4994002;28;20203;-77
2022/01/15 07:50:50;;;;;;;10.33;3.80;;;;;;;;;;4995365;28;20208;-77
2022/01/15 07:53:17;;;;;;;10.33;5.07;;;;;;;;;;4994709;28;20232;-77
2022/01/15 07:55:44;;;;;;;9.80;4.77;;;;;;;;;;4993368;28;20216;-77
2022/01/15 07:58:12;;;;;;;12.20;6.00;;;;;;;;;;4994809;28;20243;-77
2022/01/15 08:00:39;;;;;;;13.47;6.90;;;;;;;;;;4994802;28;20255;-77
2022/01/15 08:03:08;;;;;;;11.67;5.50;;;;;;;;;;4999145;28;20310;-77
2022/01/15 08:05:35;;;;;;;10.67;4.83;;;;;;;;;;4994438;28;20416;-77
2022/01/15 08:08:02;;;;;;;10.37;4.43;;;;;;;;;;4992833;28;20240;-77
2022/01/15 08:10:29;;;;;;;7.33;3.47;;;;;;;;;;4997831;28;20204;-77
2022/01/15 08:12:57;;;;;;;5.70;3.00;;;;;;;;;;4995883;28;20227;-76
2022/01/15 08:15:25;;;;;;;5.57;2.93;;;;;;;;;;4989110;28;20213;-77
2022/01/15 08:17:52;;;;;;;6.13;2.87;;;;;;;;;;4993555;28;20287;-77
2022/01/15 08:20:21;;;;;;;5.57;2.80;;;;;;;;;;4994367;28;20212;-77
2022/01/15 08:22:50;;;;;;;6.87;3.10;;;;;;;;;;4991619;28;20229;-77
2022/01/15 08:25:18;;;;;;;6.67;2.90;;;;;;;;;;4992165;28;20577;-77
2022/01/15 08:27:45;;;;;;;8.90;3.23;;;;;;;;;;4990185;28;21036;-77
2022/01/15 08:30:13;;;;;;;5.07;2.60;;;;;;;;;;4988117;28;20216;-77
2022/01/15 08:32:40;;;;;;;5.80;2.80;;;;;;;;;;4990970;28;20228;-77
2022/01/15 08:35:08;;;;;;;10.10;3.20;;;;;;;;;;4994446;28;20206;-77
2022/01/15 08:37:38;;;;;;;9.70;4.47;;;;;;;;;;4993991;28;20685;-77
2022/01/15 08:40:05;;;;;;;18.47;8.00;;;;;;;;;;4994664;28;20207;-77
2022/01/15 08:42:32;;;;;;;12.80;5.00;;;;;;;;;;4994125;28;20374;-76
2022/01/15 08:44:59;;;;;;;8.33;4.60;;;;;;;;;;4998335;28;20571;-77
2022/01/15 08:47:30;;;;;;;8.17;4.30;;;;;;;;;;4996952;28;20202;-77
2022/01/15 08:49:57;;;;;;;4.30;2.40;;;;;;;;;;5000647;28;20286;-77
2022/01/15 08:52:24;;;;;;;5.17;2.53;;;;;;;;;;5000173;28;20302;-76
2022/01/15 08:54:53;;;;;;;5.60;2.67;;;;;;;;;;4996547;28;20205;-76
2022/01/15 08:57:20;;;;;;;4.47;2.43;;;;;;;;;;4997716;28;20599;-76
2022/01/15 08:59:47;;;;;;;4.80;2.40;;;;;;;;;;4995577;28;21335;-76
2022/01/15 09:02:15;;;;;;;5.57;2.57;;;;;;;;;;4999555;28;20315;-76
2022/01/15 09:04:42;;;;;;;4.87;2.40;;;;;;;;;;4997128;28;20266;-76
2022/01/15 09:07:10;;;;;;;5.00;2.60;;;;;;;;;;4996724;28;20280;-76
2022/01/15 09:09:37;;;;;;;6.27;3.00;;;;;;;;;;5001756;28;20224;-76
2022/01/15 09:12:06;;;;;;;4.30;2.10;;;;;;;;;;4994992;28;20221;-76
2022/01/15 09:14:33;;;;;;;7.23;2.70;;;;;;;;;;4996295;28;20217;-76
2022/01/15 09:17:00;;;;;;;5.67;2.80;;;;;;;;;;5001186;28;20291;-77
2022/01/15 09:19:27;;;;;;;4.47;2.33;;;;;;;;;;4998945;28;20686;-77
2022/01/15 09:21:54;;;;;;;5.20;2.20;;;;;;;;;;4997643;28;20233;-76
2022/01/15 09:24:21;;;;;;;3.93;2.23;;;;;;;;;;4995579;28;20246;-77
2022/01/15 09:27:01;;;;;;;3.63;2.00;;;;;;;;;;4998754;28;20716;-76
2022/01/15 09:32:14;;;;;;;4.50;2.27;;;;;;;;;;4998243;28;20274;-76
2022/01/15 09:34:44;;;;;;;9.03;3.10;;;;;;;;;;4999040;28;20295;-76
2022/01/15 09:37:11;;;;;;;7.03;3.10;;;;;;;;;;4999220;28;20580;-76
2022/01/15 09:39:39;;;;;;;8.17;3.60;;;;;;;;;;4999799;28;20465;-76
2022/01/15 09:42:08;;;;;;;6.13;3.50;;;;;;;;;;4998550;28;20229;-76
2022/01/15 09:44:38;;;;;;;3.67;2.30;;;;;;;;;;4998789;28;20671;-76
2022/01/15 09:47:08;;;;;;;8.13;3.37;;;;;;;;;;4996637;28;20227;-76
2022/01/15 09:49:37;;;;;;;6.20;3.00;;;;;;;;;;4999036;28;20204;-77
2022/01/15 09:52:04;;;;;;;9.13;3.63;;;;;;;;;;4996803;28;20225;-76
2022/01/15 09:54:31;;;;;;;6.20;3.60;;;;;;;;;;5002794;28;20551;-75
2022/01/15 09:56:59;;;;;;;7.73;3.83;;;;;;;;;;4994778;28;20220;-76
2022/01/15 09:59:26;;;;;;;8.40;3.97;;;;;;;;;;4996602;28;20233;-76
2022/01/15 10:01:57;;;;;;;5.00;2.73;;;;;;;;;;5000633;28;20223;-76
2022/01/15 10:04:28;;;;;;;8.60;3.70;;;;;;;;;;4990844;28;20205;-76
2022/01/15 10:07:08;;;;;;;6.90;3.10;;;;;;;;;;4991587;28;20208;-76
2022/01/15 10:09:36;;;;;;;4.57;2.43;;;;;;;;;;4993538;28;20925;-76
2022/01/15 10:12:05;;;;;;;4.43;2.57;;;;;;;;;;4991002;28;20476;-76
2022/01/15 10:14:32;;;;;;;5.43;2.60;;;;;;;;;;4992288;28;20209;-76
2022/01/15 10:17:07;;;;;;;7.10;2.33;;;;;;;;;;4992036;28;20201;-76
2022/01/15 10:19:37;;;;;;;4.80;2.77;;;;;;;;;;4997055;28;20201;-76
2022/01/15 10:22:16;;;;;;;7.43;3.37;;;;;;;;;;4994696;28;20311;-76
2022/01/15 10:24:47;;;;;;;8.17;4.00;;;;;;;;;;5004427;28;20240;-76
2022/01/15 10:27:28;;;;;;;12.50;6.17;;;;;;;;;;4995150;28;20267;-76
2022/01/15 10:29:58;;;;;;;9.30;4.40;;;;;;;;;;4999567;28;20287;-76
2022/01/15 10:32:26;;;;;;;16.93;7.27;;;;;;;;;;4994083;28;20735;-74
2022/01/15 10:34:54;;;;;;;46.43;18.60;;;;;;;;;;4997075;28;20224;-75
2022/01/15 10:37:23;;;;;;;39.30;16.77;;;;;;;;;;4995092;28;20205;-75
2022/01/15 10:39:58;;;;;;;18.80;8.93;;;;;;;;;;4997748;28;20213;-75
2022/01/15 10:42:28;;;;;;;23.93;13.20;;;;;;;;;;4995383;28;20271;-75
2022/01/15 10:44:58;;;;;;;11.03;4.50;;;;;;;;;;4996791;28;20237;-75
2022/01/15 10:47:27;;;;;;;6.50;3.73;;;;;;;;;;4996950;28;20268;-75
2022/01/15 10:49:59;;;;;;;8.20;3.90;;;;;;;;;;4996655;28;20585;-75
2022/01/15 10:52:27;;;;;;;7.77;3.73;;;;;;;;;;4995203;28;20236;-75
2022/01/15 10:55:08;;;;;;;8.20;3.10;;;;;;;;;;4994050;28;20201;-75
2022/01/15 10:57:38;;;;;;;6.07;3.10;;;;;;;;;;4997799;28;20204;-75
2022/01/15 11:00:10;;;;;;;5.60;2.53;;;;;;;;;;4991739;28;20274;-75
2022/01/15 11:02:40;;;;;;;5.70;3.20;;;;;;;;;;5003095;28;20237;-76
2022/01/15 11:05:25;;;;;;;5.97;2.87;;;;;;;;;;4991091;28;20380;-75
2022/01/15 11:07:52;;;;;;;8.43;3.57;;;;;;;;;;4989265;28;20228;-75
2022/01/15 11:10:20;;;;;;;12.17;3.53;;;;;;;;;;4993412;28;20212;-75
2022/01/15 11:12:47;;;;;;;11.67;4.80;;;;;;;;;;4990709;28;20311;-75
2022/01/15 11:15:14;;;;;;;9.27;4.47;;;;;;;;;;4992215;28;20758;-75
2022/01/15 11:17:43;;;;;;;14.80;5.60;;;;;;;;;;4990419;28;20295;-75
2022/01/15 11:20:14;;;;;;;13.53;4.50;;;;;;;;;;4993859;28;20715;-75
2022/01/15 11:22:41;;;;;;;13.30;5.10;;;;;;;;;;4990416;28;20233;-75
2022/01/15 11:25:09;;;;;;;14.07;5.77;;;;;;;;;;4991616;28;20207;-76
2022/01/15 11:27:36;;;;;;;15.10;5.73;;;;;;;;;;4992060;28;20274;-76
2022/01/15 11:30:04;;;;;;;12.57;5.60;;;;;;;;;;4995346;28;20211;-76
2022/01/15 11:32:31;;;;;;;15.83;6.37;;;;;;;;;;4994234;28;20231;-76
2022/01/15 11:35:05;;;;;;;16.97;7.00;;;;;;;;;;4995227;28;20201;-76
2022/01/15 11:37:40;;;;;;;34.53;18.43;;;;;;;;;;4994237;28;20560;-76
2022/01/15 11:40:22;;;;;;;20.47;9.30;;;;;;;;;;4995158;28;20236;-76
2022/01/15 11:42:52;;;;;;;18.97;9.73;;;;;;;;;;4995507;28;20597;-76
2022/01/15 11:45:34;;;;;;;24.90;10.27;;;;;;;;;;4996525;28;20237;-76
2022/01/15 11:48:20;;;;;;;18.97;8.77;;;;;;;;;;4999426;28;20313;-76
2022/01/15 11:51:09;;;;;;;19.57;8.60;;;;;;;;;;4993108;28;20205;-75
2022/01/15 11:53:48;;;;;;;16.27;7.27;;;;;;;;;;4996133;28;20228;-76
2022/01/15 11:56:19;;;;;;;14.30;7.10;;;;;;;;;;4993461;28;20636;-76
2022/01/15 11:58:46;;;;;;;18.70;7.30;;;;;;;;;;4995271;28;20287;-76
2022/01/15 12:01:28;;;;;;;17.13;7.20;;;;;;;;;;4990603;28;20205;-76
2022/01/15 12:04:23;;;;;;;14.83;6.70;;;;;;;;;;4988772;28;20327;-76
2022/01/15 12:07:09;;;;;;;17.43;6.73;;;;;;;;;;4994907;28;20311;-75
2022/01/15 12:09:38;;;;;;;12.63;5.67;;;;;;;;;;4991285;28;20230;-76
2022/01/15 12:12:30;;;;;;;17.33;5.00;;;;;;;;;;4988177;28;20264;-76
2022/01/15 12:15:00;;;;;;;14.50;5.70;;;;;;;;;;4985405;28;20215;-75
2022/01/15 12:17:28;;;;;;;17.27;6.17;;;;;;;;;;4995584;28;20229;-76
2022/01/15 12:19:57;;;;;;;15.57;5.73;;;;;;;;;;4991053;28;20215;-76
2022/01/15 12:22:45;;;;;;;10.67;5.40;;;;;;;;;;4991906;28;20292;-75
2022/01/15 12:25:14;;;;;;;13.77;5.67;;;;;;;;;;4992497;28;20212;-76
2022/01/15 12:27:42;;;;;;;14.60;6.63;;;;;;;;;;4993896;28;20232;-76
2022/01/15 12:30:11;;;;;;;13.53;6.00;;;;;;;;;;4995900;28;20204;-76
2022/01/15 12:32:40;;;;;;;17.17;6.70;;;;;;;;;;4992187;28;20228;-76
2022/01/15 12:35:14;;;;;;;17.63;6.13;;;;;;;;;;4993998;28;20322;-76
2022/01/15 12:37:51;;;;;;;21.40;6.97;;;;;;;;;;4990951;28;20514;-76
2022/01/15 12:40:21;;;;;;;19.90;7.37;;;;;;;;;;4995237;28;20243;-76
2022/01/15 12:42:55;;;;;;;17.07;6.27;;;;;;;;;;5003399;28;20266;-76
2022/01/15 12:45:22;;;;;;;20.30;7.37;;;;;;;;;;4993434;28;20256;-76
2022/01/15 12:47:49;;;;;;;18.27;7.30;;;;;;;;;;4994007;28;20295;-76
2022/01/15 12:50:16;;;;;;;17.20;6.60;;;;;;;;;;4997189;28;20303;-76
2022/01/15 12:52:43;;;;;;;21.27;7.37;;;;;;;;;;4999400;28;20227;-75
2022/01/15 12:55:11;;;;;;;17.17;6.67;;;;;;;;;;4996229;28;20204;-76
2022/01/15 12:57:41;;;;;;;22.63;7.23;;;;;;;;;;4994400;28;20569;-76
2022/01/15 13:00:09;;;;;;;25.63;6.37;;;;;;;;;;4988764;28;20767;-76
2022/01/15 13:02:36;;;;;;;20.30;6.67;;;;;;;;;;4991987;28;20312;-76
2022/01/15 13:05:04;;;;;;;19.73;7.10;;;;;;;;;;4990113;28;20660;-76
2022/01/15 13:07:46;;;;;;;19.63;7.37;;;;;;;;;;4991961;28;20209;-75
2022/01/15 13:10:25;;;;;;;19.87;7.77;;;;;;;;;;4993541;28;20204;-76
2022/01/15 13:12:55;;;;;;;17.87;7.73;;;;;;;;;;4986306;28;20217;-76
2022/01/15 13:15:22;;;;;;;18.77;7.77;;;;;;;;;;4988689;28;20743;-76
2022/01/15 13:17:50;;;;;;;21.93;7.73;;;;;;;;;;4992735;28;20582;-76
2022/01/15 13:20:31;;;;;;;29.43;8.73;;;;;;;;;;4992282;28;20561;-76
2022/01/15 13:22:59;;;;;;;20.27;7.50;;;;;;;;;;4997921;28;20664;-75
2022/01/15 13:25:27;;;;;;;22.37;8.13;;;;;;;;;;4996179;28;20319;-76
2022/01/15 13:27:57;;;;;;;24.13;9.00;;;;;;;;;;4993984;28;20209;-76
2022/01/15 13:30:24;;;;;;;27.13;7.37;;;;;;;;;;4997770;28;20679;-76
2022/01/15 13:32:52;;;;;;;21.73;7.27;;;;;;;;;;4996425;28;20755;-76
2022/01/15 13:35:23;;;;;;;19.67;7.90;;;;;;;;;;4995228;28;20286;-79
2022/01/15 13:37:51;;;;;;;24.97;7.83;;;;;;;;;;4998647;28;20205;-77
2022/01/15 13:40:27;;;;;;;29.80;7.30;;;;;;;;;;4997191;28;20228;-78
2022/01/15 13:42:55;;;;;;;16.77;6.80;;;;;;;;;;4998204;28;20275;-75
2022/01/15 13:45:22;;;;;;;17.67;6.80;;;;;;;;;;5000128;28;20252;-76
2022/01/15 13:47:50;;;;;;;19.70;5.87;;;;;;;;;;4995391;28;20209;-76
2022/01/15 13:53:12;;;;;;;23.13;6.63;;;;;;;;;;4997319;28;20239;-77
2022/01/15 13:55:40;;;;;;;18.73;7.37;;;;;;;;;;5000731;28;20216;-77
2022/01/15 13:58:12;;;;;;;15.40;6.97;;;;;;;;;;5001726;28;20200;-77
2022/01/15 14:00:40;;;;;;;22.63;6.43;;;;;;;;;;4998915;28;20212;-77
2022/01/15 14:03:08;;;;;;;19.43;6.47;;;;;;;;;;5001661;28;20240;-77
2022/01/15 14:05:35;;;;;;;15.30;6.70;;;;;;;;;;4998717;28;20755;-76
2022/01/15 14:08:10;;;;;;;18.33;6.47;;;;;;;;;;5001180;28;20304;-77
2022/01/15 14:10:39;;;;;;;43.70;19.43;;;;;;;;;;4996225;28;20256;-76
2022/01/15 14:13:07;;;;;;;24.50;11.60;;;;;;;;;;4998485;28;20657;-77
2022/01/15 14:15:36;;;;;;;35.17;12.60;;;;;;;;;;5001675;28;20738;-77
2022/01/15 14:18:08;;;;;;;62.60;28.43;;;;;;;;;;4996497;28;20556;-77
2022/01/15 14:21:16;;;;;;;36.10;16.93;;;;;;;;;;5000036;28;20295;-76
2022/01/15 14:23:43;;;;;;;64.93;32.63;;;;;;;;;;4996584;28;20236;-77
2022/01/15 14:26:16;;;;;;;30.40;13.97;;;;;;;;;;5000103;28;20216;-77
2022/01/15 14:28:43;;;;;;;15.33;6.53;;;;;;;;;;4998363;28;20208;-77
2022/01/15 14:31:11;;;;;;;12.43;5.07;;;;;;;;;;4999797;28;20296;-77
2022/01/15 14:33:46;;;;;;;14.47;6.00;;;;;;;;;;4997862;28;20569;-77
2022/01/15 14:36:13;;;;;;;13.93;5.33;;;;;;;;;;4998439;28;20619;-76
2022/01/15 14:38:40;;;;;;;13.63;5.97;;;;;;;;;;4997984;28;20298;-76
2022/01/15 14:41:09;;;;;;;12.00;5.37;;;;;;;;;;4995646;28;20242;-77
2022/01/15 14:43:36;;;;;;;14.03;5.60;;;;;;;;;;4998318;28;20243;-76
2022/01/15 14:46:04;;;;;;;13.50;5.20;;;;;;;;;;4996078;28;20269;-77
2022/01/15 14:48:33;;;;;;;12.80;5.60;;;;;;;;;;4998886;28;20249;-77
2022/01/15 14:51:01;;;;;;;11.83;5.67;;;;;;;;;;4997564;28;20201;-76
2022/01/15 14:53:28;;;;;;;15.60;6.30;;;;;;;;;;4993758;28;20312;-77
2022/01/15 14:55:55;;;;;;;15.67;6.50;;;;;;;;;;4996714;28;20215;-76
2022/01/15 14:58:22;;;;;;;12.63;6.13;;;;;;;;;;4997311;28;20232;-75